Time;durP1;ratioP1;P1;durP2;ratioP2;P2;SDS_P1;SDS_P2;PMS_P1;PMS_P2;Temp;Humidity;BMP_temperature;BMP_pressure;BME280_temperature;BME280_humidity;BME280_pressure;Samples;Min_cycle;Max_cycle;Signal;HPM_P1;HPM_P2
2021/04/01 00:00:51;;;;;;;12.43;11.23;;;;;;;12.49;56.20;100666.31;4987683;28;20239;-73
2021/04/01 00:03:18;;;;;;;13.67;12.30;;;;;;;12.20;57.77;100671.34;4987597;28;20223;-72
2021/04/01 00:05:44;;;;;;;13.27;11.90;;;;;;;12.07;58.84;100678.56;4988783;28;20209;-72
2021/04/01 00:08:11;;;;;;;12.97;11.80;;;;;;;12.14;57.66;100661.84;4987849;28;20223;-73
2021/04/01 00:10:39;;;;;;;12.37;11.23;;;;;;;12.27;57.68;100663.31;4990687;28;20215;-73
2021/04/01 00:13:06;;;;;;;12.43;11.13;;;;;;;12.76;50.66;100656.03;4991365;28;20871;-73
2021/04/01 00:15:33;;;;;;;14.83;11.97;;;;;;;13.26;49.68;100656.53;4989985;28;20239;-73
2021/04/01 00:17:59;;;;;;;14.60;11.47;;;;;;;13.46;50.01;100656.03;4986868;28;20210;-73
2021/04/01 00:20:27;;;;;;;12.90;11.53;;;;;;;13.71;48.01;100655.34;4987567;28;20240;-73
2021/04/01 00:22:53;;;;;;;13.23;11.27;;;;;;;14.21;46.26;100646.88;4990113;28;20353;-74
2021/04/01 00:25:19;;;;;;;12.73;11.53;;;;;;;14.33;45.92;100645.63;4994512;28;20755;-73
2021/04/01 00:27:45;;;;;;;18.07;13.33;;;;;;;14.75;44.56;100643.44;4987619;28;20281;-73
2021/04/01 00:30:12;;;;;;;13.87;12.67;;;;;;;14.92;42.67;100649.91;4986628;28;20564;-72
2021/04/01 00:32:39;;;;;;;13.13;11.83;;;;;;;14.94;44.83;100645.44;4987978;28;20213;-73
2021/04/01 00:35:06;;;;;;;12.87;11.50;;;;;;;14.82;45.22;100647.56;4988430;28;20658;-73
2021/04/01 00:37:32;;;;;;;17.77;11.83;;;;;;;14.83;44.11;100641.41;4990312;28;20251;-73
2021/04/01 00:39:58;;;;;;;13.13;11.73;;;;;;;14.81;44.51;100653.75;4988320;28;20292;-74
2021/04/01 00:42:24;;;;;;;14.47;12.23;;;;;;;14.94;42.48;100645.44;4987631;28;20219;-74
2021/04/01 00:44:51;;;;;;;12.20;11.00;;;;;;;15.07;44.37;100647.59;4987208;28;20227;-73
2021/04/01 00:47:17;;;;;;;10.60;9.70;;;;;;;14.90;48.64;100642.06;4988719;28;20692;-72
2021/04/01 00:49:44;;;;;;;14.23;11.20;;;;;;;14.77;48.51;100638.16;4993274;28;20300;-74
2021/04/01 00:52:10;;;;;;;12.77;11.47;;;;;;;14.34;48.15;100635.09;4987579;28;20206;-73
2021/04/01 00:54:37;;;;;;;13.60;12.20;;;;;;;14.29;46.29;100631.72;4988314;28;20324;-74
2021/04/01 00:57:05;;;;;;;13.30;11.90;;;;;;;14.28;44.83;100633.50;4987656;28;20210;-73
2021/04/01 00:59:32;;;;;;;12.60;11.40;;;;;;;14.38;44.93;100634.09;4987821;28;20217;-73
2021/04/01 01:02:01;;;;;;;16.10;13.60;;;;;;;14.42;45.24;100627.81;4989676;28;20211;-73
2021/04/01 01:04:28;;;;;;;12.53;11.43;;;;;;;14.48;45.61;100625.00;4989119;28;20225;-74
2021/04/01 01:06:55;;;;;;;12.83;11.53;;;;;;;14.43;46.64;100616.41;4989066;28;20217;-73
2021/04/01 01:09:20;;;;;;;14.10;12.63;;;;;;;14.64;44.55;100625.38;4987434;28;20219;-73
2021/04/01 01:11:46;;;;;;;13.50;12.10;;;;;;;14.75;43.59;100621.56;4987444;28;20207;-74
2021/04/01 01:14:12;;;;;;;13.57;12.07;;;;;;;14.84;43.75;100618.63;4987802;28;20235;-73
2021/04/01 01:16:38;;;;;;;14.30;12.43;;;;;;;14.78;45.97;100609.16;4990219;28;20320;-73
2021/04/01 01:19:05;;;;;;;12.50;11.30;;;;;;;14.75;48.91;100617.16;4988242;28;20210;-74
2021/04/01 01:21:31;;;;;;;11.43;10.33;;;;;;;14.65;49.64;100618.38;4986765;28;20209;-73
2021/04/01 01:23:58;;;;;;;12.13;11.13;;;;;;;14.50;50.96;100623.19;4986793;28;20274;-73
2021/04/01 01:26:25;;;;;;;13.80;12.10;;;;;;;14.39;48.39;100613.91;4988102;28;20743;-73
2021/04/01 01:28:52;;;;;;;13.57;12.27;;;;;;;14.25;49.24;100612.63;4987822;28;20226;-73
2021/04/01 01:31:20;;;;;;;13.13;11.87;;;;;;;14.14;48.94;100604.19;4988441;28;20222;-74
2021/04/01 01:33:47;;;;;;;14.40;13.00;;;;;;;14.13;47.82;100604.25;4986429;28;20275;-73
2021/04/01 01:36:14;;;;;;;15.77;14.00;;;;;;;14.18;48.03;100611.06;4990034;28;20272;-73
2021/04/01 01:38:40;;;;;;;14.17;12.77;;;;;;;14.25;49.36;100614.34;4987738;28;20228;-74
2021/04/01 01:41:06;;;;;;;16.60;12.63;;;;;;;14.29;50.42;100600.22;4987879;28;20212;-73
2021/04/01 01:43:34;;;;;;;15.33;11.37;;;;;;;14.26;51.88;100601.19;4987197;28;20226;-74
2021/04/01 01:46:00;;;;;;;13.30;11.80;;;;;;;14.18;53.03;100599.72;4986967;28;20206;-73
2021/04/01 01:48:26;;;;;;;12.23;11.13;;;;;;;14.06;53.24;100600.97;4985674;28;20234;-73
2021/04/01 01:50:53;;;;;;;12.17;11.07;;;;;;;14.07;53.28;100598.28;4986665;28;20221;-73
2021/04/01 01:53:19;;;;;;;13.40;11.17;;;;;;;14.01;53.50;100597.59;4988675;28;20208;-73
2021/04/01 01:55:46;;;;;;;13.20;11.03;;;;;;;13.97;53.65;100598.59;4985405;28;20213;-73
2021/04/01 01:58:12;;;;;;;13.60;10.90;;;;;;;13.91;54.29;100599.66;4990264;28;20263;-73
2021/04/01 02:00:41;;;;;;;12.23;11.17;;;;;;;13.90;54.04;100597.94;4987634;28;20667;-73
2021/04/01 02:03:09;;;;;;;12.33;11.13;;;;;;;13.86;53.47;100605.03;4984328;28;20213;-73
2021/04/01 02:05:36;;;;;;;11.63;10.43;;;;;;;13.76;53.34;100600.13;4986950;28;20206;-73
2021/04/01 02:08:03;;;;;;;12.53;11.33;;;;;;;13.78;53.76;100593.06;4984649;28;20763;-73
2021/04/01 02:10:31;;;;;;;13.60;12.23;;;;;;;13.67;53.04;100602.09;4985927;28;20224;-73
2021/04/01 02:12:58;;;;;;;17.10;13.40;;;;;;;13.60;53.99;100599.72;4984964;28;20587;-73
2021/04/01 02:15:26;;;;;;;14.13;12.73;;;;;;;13.60;54.21;100600.56;4984085;28;20220;-73
2021/04/01 02:18:05;;;;;;;13.40;12.27;;;;;;;13.54;54.92;100602.47;4986706;28;20205;-73
2021/04/01 02:20:31;;;;;;;12.10;10.90;;;;;;;13.53;55.31;100593.75;4987454;28;20213;-73
2021/04/01 02:22:57;;;;;;;12.03;11.00;;;;;;;13.45;56.06;100598.38;4984313;28;20209;-72
2021/04/01 02:25:23;;;;;;;12.13;11.13;;;;;;;13.42;56.39;100591.47;4985220;28;20238;-75
2021/04/01 02:27:49;;;;;;;11.27;10.20;;;;;;;13.34;56.63;100597.81;4983762;28;20995;-73
2021/04/01 02:30:15;;;;;;;12.37;11.13;;;;;;;13.29;56.22;100588.31;4985544;28;20540;-74
2021/04/01 02:32:41;;;;;;;12.33;11.13;;;;;;;13.22;56.08;100591.09;4983970;28;20591;-74
2021/04/01 02:35:09;;;;;;;11.97;10.87;;;;;;;13.16;56.27;100589.53;4984405;28;20249;-73
2021/04/01 02:37:35;;;;;;;11.57;10.47;;;;;;;13.16;56.13;100583.41;4985327;28;20206;-74
2021/04/01 02:40:01;;;;;;;11.53;10.43;;;;;;;13.12;56.36;100585.25;4984563;28;20208;-74
2021/04/01 02:42:27;;;;;;;11.63;10.63;;;;;;;13.10;56.36;100579.19;4984892;28;20645;-74
2021/04/01 02:44:53;;;;;;;11.53;10.43;;;;;;;13.14;56.80;100580.84;4989383;28;20225;-73
2021/04/01 02:47:19;;;;;;;11.37;10.43;;;;;;;13.19;55.70;100578.09;4987687;28;20483;-73
2021/04/01 02:49:45;;;;;;;12.20;11.20;;;;;;;13.16;55.71;100581.69;4983932;28;20222;-73
2021/04/01 02:52:12;;;;;;;13.10;11.43;;;;;;;13.17;55.76;100591.25;4988100;28;20209;-74
2021/04/01 02:54:38;;;;;;;11.73;10.63;;;;;;;13.14;56.40;100585.22;4985767;28;20247;-74
2021/04/01 02:57:13;;;;;;;12.37;11.20;;;;;;;13.17;56.09;100593.00;4983544;28;20674;-74
2021/04/01 02:59:39;;;;;;;12.00;11.00;;;;;;;13.06;55.75;100591.53;4982478;28;20209;-73
2021/04/01 03:02:05;;;;;;;11.73;10.83;;;;;;;12.97;56.72;100591.78;4983947;28;20216;-74
2021/04/01 03:04:33;;;;;;;11.57;10.37;;;;;;;12.81;55.98;100593.94;4985569;28;20228;-73
2021/04/01 03:06:58;;;;;;;11.90;10.90;;;;;;;12.89;54.88;100591.97;4984222;28;20210;-73
2021/04/01 03:09:25;;;;;;;12.67;10.80;;;;;;;12.88;55.31;100589.38;4984144;28;20288;-73
2021/04/01 03:11:51;;;;;;;12.00;10.90;;;;;;;12.75;56.01;100590.63;4984536;28;20210;-73
2021/04/01 03:14:17;;;;;;;11.67;10.67;;;;;;;12.63;56.43;100589.19;4984282;28;20593;-73
2021/04/01 03:16:43;;;;;;;16.07;10.93;;;;;;;12.66;56.41;100582.06;4984157;28;20225;-74
2021/04/01 03:19:09;;;;;;;12.27;11.17;;;;;;;12.68;57.08;100580.28;4984416;28;20212;-73
2021/04/01 03:21:35;;;;;;;11.10;10.07;;;;;;;12.68;57.55;100590.75;4983202;28;20670;-73
2021/04/01 03:24:01;;;;;;;13.00;11.87;;;;;;;12.75;56.66;100582.78;4989076;28;20228;-73
2021/04/01 03:26:28;;;;;;;11.57;10.57;;;;;;;12.79;56.40;100597.50;4984914;28;20226;-73
2021/04/01 03:28:53;;;;;;;12.37;11.13;;;;;;;12.70;55.86;100604.69;4983655;28;20275;-73
2021/04/01 03:31:19;;;;;;;12.47;11.37;;;;;;;12.45;56.34;100601.81;4984892;28;20736;-73
2021/04/01 03:33:46;;;;;;;13.43;12.13;;;;;;;12.42;58.94;100601.03;4983515;28;20231;-72
2021/04/01 03:36:13;;;;;;;12.07;10.97;;;;;;;12.43;58.10;100602.75;4985608;28;20214;-73
2021/04/01 03:38:39;;;;;;;13.13;11.83;;;;;;;12.43;58.80;100597.53;4984201;28;20259;-73
2021/04/01 03:41:05;;;;;;;12.30;11.17;;;;;;;12.47;57.67;100593.94;4983648;28;20212;-74
2021/04/01 03:43:32;;;;;;;12.10;11.00;;;;;;;12.51;58.74;100599.03;4984379;28;20364;-73
2021/04/01 03:45:58;;;;;;;12.43;11.27;;;;;;;12.51;58.61;100600.81;4983255;28;20259;-74
2021/04/01 03:48:24;;;;;;;12.70;11.40;;;;;;;12.56;57.06;100600.69;4983459;28;20449;-74
2021/04/01 03:50:50;;;;;;;13.33;12.13;;;;;;;12.60;55.66;100603.19;4984146;28;20215;-73
2021/04/01 03:53:16;;;;;;;12.63;11.07;;;;;;;12.68;55.46;100605.63;4982691;28;20302;-74
2021/04/01 03:55:43;;;;;;;13.33;12.07;;;;;;;12.79;55.83;100611.47;4985066;28;20681;-74
2021/04/01 03:58:26;;;;;;;13.83;12.33;;;;;;;12.85;54.90;100613.06;4984260;28;20209;-73
2021/04/01 04:01:01;;;;;;;13.70;12.27;;;;;;;12.49;55.51;100613.09;4984113;28;20207;-74
2021/04/01 04:03:38;;;;;;;14.03;12.70;;;;;;;12.34;58.09;100603.81;4983466;28;20211;-73
2021/04/01 04:06:13;;;;;;;13.13;11.93;;;;;;;12.29;57.73;100605.69;4985790;28;20239;-74
2021/04/01 04:08:51;;;;;;;14.43;13.20;;;;;;;12.09;58.43;100609.63;4983508;28;20259;-73
2021/04/01 04:11:24;;;;;;;14.83;12.37;;;;;;;12.04;58.11;100605.38;4987818;28;20270;-74
2021/04/01 04:13:54;;;;;;;14.97;12.87;;;;;;;12.03;57.91;100601.03;4987384;28;20242;-73
2021/04/01 04:16:20;;;;;;;14.10;12.63;;;;;;;12.15;55.52;100598.16;4986988;28;20224;-73
2021/04/01 04:18:46;;;;;;;14.67;12.57;;;;;;;12.09;58.10;100588.69;4995086;28;20282;-73
2021/04/01 04:21:13;;;;;;;14.47;12.97;;;;;;;12.10;56.64;100589.56;4990513;28;20673;-73
2021/04/01 04:23:41;;;;;;;15.67;13.93;;;;;;;12.32;56.15;100582.06;4988789;28;20227;-74
2021/04/01 04:26:07;;;;;;;13.50;12.27;;;;;;;12.48;54.73;100585.16;4987433;28;20886;-73
2021/04/01 04:28:33;;;;;;;14.30;13.00;;;;;;;12.41;57.12;100581.00;4991067;28;20239;-73
2021/04/01 04:31:00;;;;;;;14.77;13.27;;;;;;;12.36;56.60;100577.63;4990557;28;20213;-73
2021/04/01 04:33:27;;;;;;;15.77;12.97;;;;;;;12.34;56.10;100576.78;4986642;28;20227;-73
2021/04/01 04:35:53;;;;;;;17.60;13.83;;;;;;;12.40;54.87;100576.63;4988588;28;20246;-73
2021/04/01 04:38:19;;;;;;;15.47;13.90;;;;;;;12.65;53.59;100592.63;4989243;28;20882;-73
2021/04/01 04:40:46;;;;;;;17.23;13.93;;;;;;;12.80;52.37;100583.50;4986569;28;20456;-73
2021/04/01 04:43:12;;;;;;;19.93;14.43;;;;;;;12.90;51.23;100585.84;4986447;28;20371;-73
2021/04/01 04:45:38;;;;;;;16.50;13.47;;;;;;;12.86;52.14;100586.84;4986737;28;20216;-73
2021/04/01 04:48:05;;;;;;;15.57;13.97;;;;;;;12.95;51.50;100597.97;4986382;28;20258;-73
2021/04/01 04:50:32;;;;;;;16.50;13.70;;;;;;;12.97;52.14;100606.66;4987075;28;20776;-72
2021/04/01 04:52:58;;;;;;;15.30;13.93;;;;;;;12.91;53.98;100592.78;4985637;28;20206;-73
2021/04/01 04:55:25;;;;;;;15.20;13.73;;;;;;;12.79;54.96;100587.88;4986324;28;20233;-73
2021/04/01 04:57:54;;;;;;;15.13;13.00;;;;;;;12.73;53.38;100595.91;4985947;28;20212;-74
2021/04/01 05:05:57;;;;;;;13.50;12.30;;;;;;;12.54;54.79;100590.25;4988140;28;20294;-73
2021/04/01 05:08:23;;;;;;;14.20;12.73;;;;;;;12.42;57.05;100594.03;4985614;28;20236;-73
2021/04/01 05:10:50;;;;;;;16.60;14.33;;;;;;;12.50;53.62;100599.06;4985935;28;20244;-74
2021/04/01 05:13:16;;;;;;;15.27;13.67;;;;;;;12.52;54.89;100600.75;4986149;28;20273;-73
2021/04/01 05:15:46;;;;;;;15.80;14.27;;;;;;;12.46;55.03;100606.13;4986631;28;20215;-73
2021/04/01 05:18:21;;;;;;;19.87;13.33;;;;;;;12.34;56.65;100616.91;4992535;28;20208;-73
2021/04/01 05:20:48;;;;;;;14.07;12.50;;;;;;;12.16;58.40;100614.72;4985946;28;20218;-73
2021/04/01 05:23:24;;;;;;;15.60;13.40;;;;;;;12.10;58.12;100613.09;4984164;28;20212;-74
2021/04/01 05:25:51;;;;;;;15.97;14.47;;;;;;;12.19;55.98;100612.03;4986556;28;20203;-73
2021/04/01 05:28:24;;;;;;;16.17;14.60;;;;;;;12.29;55.34;100618.78;4985366;28;20314;-74
2021/04/01 05:30:50;;;;;;;14.77;13.27;;;;;;;12.42;55.10;100614.13;4989113;28;20752;-72
2021/04/01 05:33:17;;;;;;;15.87;14.17;;;;;;;12.48;55.44;100619.19;4988856;28;20775;-73
2021/04/01 05:35:43;;;;;;;16.90;14.87;;;;;;;12.63;54.21;100621.44;4987780;28;20259;-73
2021/04/01 05:38:09;;;;;;;15.73;14.13;;;;;;;12.64;54.69;100628.41;4986052;28;20246;-74
2021/04/01 05:40:36;;;;;;;16.13;14.40;;;;;;;12.74;54.00;100615.09;4985883;28;20270;-74
2021/04/01 05:43:04;;;;;;;18.23;13.57;;;;;;;12.84;54.48;100614.84;4987528;28;20208;-74
2021/04/01 05:45:38;;;;;;;14.17;12.87;;;;;;;12.83;57.45;100607.00;4987259;28;20279;-73
2021/04/01 05:48:10;;;;;;;15.73;14.33;;;;;;;12.90;58.70;100601.56;4985557;28;20705;-73
2021/04/01 05:50:53;;;;;;;15.83;13.67;;;;;;;12.89;58.72;100593.75;4985742;28;20698;-74
2021/04/01 05:59:09;;;;;;;15.83;14.33;;;;;;;13.05;58.29;100600.28;4986585;28;20868;-73
2021/04/01 06:01:50;;;;;;;16.33;14.57;;;;;;;13.14;59.42;100595.69;4988424;28;20350;-74
2021/04/01 06:04:28;;;;;;;18.63;16.00;;;;;;;13.14;54.77;100591.34;4989661;28;20328;-73
2021/04/01 06:07:00;;;;;;;16.47;14.93;;;;;;;13.11;57.76;100584.41;4987251;28;20576;-73
2021/04/01 06:09:27;;;;;;;17.50;15.40;;;;;;;13.16;55.80;100597.41;4985582;28;20599;-73
2021/04/01 06:11:56;;;;;;;20.00;17.10;;;;;;;13.38;50.14;100599.44;4986388;28;20201;-74
2021/04/01 06:14:49;;;;;;;20.73;16.83;;;;;;;13.59;49.54;100598.84;4987940;28;20236;-73
2021/04/01 06:17:18;;;;;;;24.00;16.93;;;;;;;13.71;49.95;100600.25;4987935;28;20231;-73
2021/04/01 06:19:47;;;;;;;18.37;16.17;;;;;;;13.67;49.84;100594.22;4987310;28;20691;-73
2021/04/01 06:22:14;;;;;;;19.03;17.07;;;;;;;13.65;51.96;100595.19;4986473;28;20219;-74
2021/04/01 06:24:45;;;;;;;19.40;17.23;;;;;;;13.63;49.63;100599.59;4987767;28;20223;-73
2021/04/01 06:27:18;;;;;;;21.00;18.10;;;;;;;13.63;49.20;100603.09;4994212;28;20677;-72
2021/04/01 06:30:11;;;;;;;23.90;17.07;;;;;;;13.62;54.36;100597.91;4990825;28;20235;-72
2021/04/01 06:32:35;;;;;;;19.60;17.23;;;;;;;13.55;52.35;100599.81;4987336;28;20389;-73
2021/04/01 06:35:09;;;;;;;20.23;17.93;;;;;;;13.50;50.37;100594.72;4988484;28;20231;-73
2021/04/01 06:37:53;;;;;;;18.73;16.83;;;;;;;13.51;53.17;100596.44;4988605;28;20201;-72
2021/04/01 06:40:19;;;;;;;22.57;17.40;;;;;;;13.54;52.00;100595.50;4986247;28;20332;-72
2021/04/01 06:42:53;;;;;;;23.67;18.63;;;;;;;13.55;51.97;100596.34;4986248;28;20740;-73
2021/04/01 06:45:23;;;;;;;24.87;18.37;;;;;;;13.60;51.16;100615.44;4988945;28;20232;-73
2021/04/01 06:47:50;;;;;;;23.23;17.30;;;;;;;13.64;52.11;100609.22;4986255;28;20291;-73
2021/04/01 06:50:22;;;;;;;22.33;17.57;;;;;;;13.51;52.66;100598.19;4988826;28;20237;-74
2021/04/01 06:52:55;;;;;;;20.40;16.90;;;;;;;13.52;52.64;100610.41;4985606;28;20682;-74
2021/04/01 06:55:27;;;;;;;19.00;17.07;;;;;;;13.57;54.63;100600.63;4986540;28;20240;-73
2021/04/01 06:58:05;;;;;;;18.87;16.73;;;;;;;13.74;54.84;100609.81;4989446;28;20204;-74
2021/04/01 07:00:42;;;;;;;17.33;15.53;;;;;;;13.77;55.87;100628.06;4988402;28;20211;-74
2021/04/01 07:03:15;;;;;;;18.87;14.60;;;;;;;13.49;58.13;100631.47;4988201;28;20216;-74
2021/04/01 07:05:48;;;;;;;18.17;15.43;;;;;;;12.87;60.12;100637.47;4988516;28;20214;-73
2021/04/01 07:08:16;;;;;;;17.50;15.83;;;;;;;12.52;59.68;100626.09;4985724;28;20252;-74
2021/04/01 07:10:52;;;;;;;17.57;15.83;;;;;;;12.63;59.87;100607.50;4985912;28;20209;-74
2021/04/01 07:13:25;;;;;;;17.50;15.67;;;;;;;12.73;59.40;100614.22;4990106;28;20621;-74
2021/04/01 07:15:54;;;;;;;21.70;15.23;;;;;;;12.81;61.47;100620.13;4986246;28;20216;-74
2021/04/01 07:18:49;;;;;;;22.63;17.17;;;;;;;13.07;58.17;100639.56;4985854;28;20244;-72
2021/04/01 07:46:43;;;;;;;27.70;20.20;;;;;;;12.97;62.55;100661.69;4987635;28;20214;-73
2021/04/01 07:49:20;;;;;;;23.00;19.23;;;;;;;13.07;62.22;100660.53;4990128;28;20229;-73
2021/04/01 07:52:05;;;;;;;21.37;19.10;;;;;;;13.10;62.76;100660.44;4993715;28;20203;-73
2021/04/01 07:54:40;;;;;;;24.67;17.90;;;;;;;13.15;61.59;100666.44;4990233;28;20251;-73
2021/04/01 07:57:30;;;;;;;21.77;19.50;;;;;;;13.29;61.13;100655.59;4991068;28;20210;-73
2021/04/01 08:00:05;;;;;;;22.03;19.67;;;;;;;13.44;60.93;100657.84;5000928;28;20211;-71
2021/04/01 08:05:33;;;;;;;25.57;19.33;;;;;;;13.64;59.43;100667.78;4977751;28;20232;-72
2021/04/01 08:08:05;;;;;;;21.43;19.23;;;;;;;13.69;60.15;100681.59;4994090;28;20301;-72
2021/04/01 08:10:35;;;;;;;25.50;22.77;;;;;;;13.77;60.41;100688.41;4992476;28;20237;-71
2021/04/01 08:13:05;;;;;;;35.93;25.00;;;;;;;13.92;60.36;100685.34;4993333;28;20206;-71
2021/04/01 08:15:36;;;;;;;42.00;28.10;;;;;;;14.18;59.26;100684.59;4989583;28;20796;-73
2021/04/01 08:18:15;;;;;;;47.07;30.37;;;;;;;14.39;58.66;100697.97;4992652;28;20571;-73
2021/04/01 08:20:43;;;;;;;55.33;34.10;;;;;;;14.47;56.33;100686.31;4995310;28;20470;-73
2021/04/01 08:23:16;;;;;;;59.70;36.93;;;;;;;14.46;54.49;100689.84;4992607;28;20796;-72
2021/04/01 08:25:47;;;;;;;56.73;35.17;;;;;;;14.39;53.50;100692.72;5001011;28;20674;-72
2021/04/01 08:28:28;;;;;;;60.23;36.37;;;;;;;14.27;54.56;100700.06;4991368;28;20765;-72
2021/04/01 08:31:16;;;;;;;62.13;36.43;;;;;;;14.25;53.97;100690.50;4992525;28;20202;-72
2021/04/01 08:33:57;;;;;;;59.57;35.60;;;;;;;14.24;54.81;100676.53;4991686;28;20665;-72
2021/04/01 08:36:24;;;;;;;56.10;35.87;;;;;;;14.10;53.90;100674.31;4996036;28;20706;-72
2021/04/01 08:38:50;;;;;;;62.63;37.07;;;;;;;14.13;53.87;100670.72;4989826;28;20201;-72
2021/04/01 08:41:29;;;;;;;61.87;36.13;;;;;;;14.29;53.36;100669.38;4988719;28;20481;-72
2021/04/01 08:44:12;;;;;;;62.70;36.47;;;;;;;14.47;53.45;100656.59;4990095;28;20235;-72
2021/04/01 08:47:10;;;;;;;58.27;37.93;;;;;;;14.47;52.44;100652.19;4987987;28;20206;-72
2021/04/01 08:49:42;;;;;;;68.87;38.13;;;;;;;14.10;52.84;100648.06;4988779;28;20299;-72
2021/04/01 08:52:59;;;;;;;62.43;36.97;;;;;;;14.15;51.32;100654.94;4989749;28;20233;-72
2021/04/01 08:55:36;;;;;;;67.90;36.97;;;;;;;14.32;51.86;100647.41;4990415;28;20229;-71
2021/04/01 08:58:07;;;;;;;63.53;34.63;;;;;;;14.36;49.56;100649.03;4989274;28;20205;-71
2021/04/01 09:00:33;;;;;;;60.10;35.90;;;;;;;14.52;51.13;100648.56;4989989;28;20211;-72
2021/04/01 09:03:02;;;;;;;65.43;37.40;;;;;;;14.70;52.39;100651.47;4990522;28;20220;-72
2021/04/01 09:05:29;;;;;;;62.60;36.93;;;;;;;14.73;50.47;100645.25;4991982;28;20261;-71
2021/04/01 09:07:59;;;;;;;64.60;38.23;;;;;;;14.79;48.62;100657.34;4991842;28;20214;-71
2021/04/01 09:10:29;;;;;;;64.47;37.30;;;;;;;14.85;47.08;100655.38;4989020;28;20210;-72
2021/04/01 09:12:59;;;;;;;71.90;39.27;;;;;;;14.78;46.57;100658.25;4987489;28;20210;-74
2021/04/01 09:15:34;;;;;;;69.60;38.63;;;;;;;14.83;48.91;100658.97;4988605;28;20556;-73
2021/04/01 09:18:00;;;;;;;69.13;38.43;;;;;;;14.87;48.73;100658.81;4989104;28;20209;-74
2021/04/01 09:20:27;;;;;;;66.20;38.13;;;;;;;14.96;47.62;100656.78;4987375;28;20461;-74
2021/04/01 09:22:56;;;;;;;73.57;39.57;;;;;;;15.03;48.03;100650.41;4986941;28;20207;-74
2021/04/01 09:25:34;;;;;;;69.17;40.20;;;;;;;15.07;47.38;100642.34;4987817;28;20249;-73
2021/04/01 09:28:02;;;;;;;75.53;40.20;;;;;;;15.22;44.54;100651.50;4988406;28;20216;-74
2021/04/01 09:30:31;;;;;;;79.20;39.67;;;;;;;15.21;45.31;100646.28;4992619;28;20207;-73
2021/04/01 09:33:05;;;;;;;74.33;40.87;;;;;;;15.16;45.46;100646.41;4988185;28;20210;-74
2021/04/01 09:35:33;;;;;;;78.47;39.40;;;;;;;15.25;44.27;100647.88;4989414;28;20230;-74
2021/04/01 09:38:03;;;;;;;74.43;40.23;;;;;;;15.31;45.95;100646.81;4986871;28;20825;-74
2021/04/01 09:40:32;;;;;;;77.20;40.93;;;;;;;15.36;44.93;100648.38;4988774;28;20214;-74
2021/04/01 09:43:12;;;;;;;75.83;40.13;;;;;;;15.47;46.37;100646.22;4988382;28;21223;-74
2021/04/01 09:45:39;;;;;;;84.73;41.63;;;;;;;15.56;45.98;100649.41;4986464;28;20345;-74
2021/04/01 09:48:07;;;;;;;82.67;42.67;;;;;;;15.64;45.60;100642.97;4987599;28;20211;-75
2021/04/01 09:50:34;;;;;;;81.90;43.63;;;;;;;15.75;45.44;100647.00;4988622;28;20257;-74
2021/04/01 09:53:03;;;;;;;78.20;42.37;;;;;;;15.81;44.05;100641.53;4988215;28;20211;-75
2021/04/01 09:55:39;;;;;;;80.00;41.77;;;;;;;15.89;44.34;100644.72;4988401;28;20725;-73
2021/04/01 09:58:21;;;;;;;88.10;45.17;;;;;;;15.94;43.83;100648.03;4987477;28;20941;-73
2021/04/01 10:01:11;;;;;;;88.47;43.87;;;;;;;15.98;42.45;100661.97;4987674;28;20306;-73
2021/04/01 10:03:48;;;;;;;91.37;45.30;;;;;;;16.14;43.34;100662.22;4986979;28;20236;-73
2021/04/01 10:06:26;;;;;;;85.83;44.77;;;;;;;16.05;41.75;100664.31;4988427;28;20217;-73
2021/04/01 10:08:53;;;;;;;89.93;43.73;;;;;;;16.15;43.05;100663.94;4986296;28;20232;-73
2021/04/01 10:11:24;;;;;;;88.30;46.70;;;;;;;16.22;43.74;100676.81;4987532;28;20227;-72
2021/04/01 10:14:03;;;;;;;83.80;45.27;;;;;;;16.21;44.63;100663.69;4985754;28;20233;-73
2021/04/01 10:16:29;;;;;;;89.70;46.27;;;;;;;16.13;42.94;100669.25;4990032;28;20267;-73
2021/04/01 10:18:55;;;;;;;94.20;45.40;;;;;;;15.98;43.32;100664.59;4988276;28;20242;-73
2021/04/01 10:21:22;;;;;;;85.77;45.87;;;;;;;16.05;45.83;100664.31;4986821;28;20229;-73
2021/04/01 10:23:52;;;;;;;93.83;46.27;;;;;;;16.11;44.52;100665.81;4986476;28;20241;-73
2021/04/01 10:26:24;;;;;;;82.97;45.87;;;;;;;16.17;45.34;100670.00;4987183;28;20226;-74
2021/04/01 10:29:02;;;;;;;86.33;46.80;;;;;;;16.07;47.03;100667.72;4989839;28;20239;-72
2021/04/01 10:31:31;;;;;;;81.70;45.80;;;;;;;16.11;46.97;100673.72;4989316;28;20732;-73
2021/04/01 10:34:19;;;;;;;86.20;45.10;;;;;;;16.12;45.32;100671.97;4986158;28;20234;-74
2021/04/01 10:36:45;;;;;;;75.90;43.27;;;;;;;16.12;46.78;100678.09;4992106;28;20206;-74
2021/04/01 10:39:12;;;;;;;84.23;44.30;;;;;;;16.16;47.13;100690.22;4988991;28;20232;-75
2021/04/01 10:41:47;;;;;;;79.03;42.80;;;;;;;16.20;47.03;100676.00;4989201;28;20705;-74
2021/04/01 10:44:14;;;;;;;81.87;43.33;;;;;;;16.06;46.42;100680.97;4985795;28;20237;-74
2021/04/01 10:46:49;;;;;;;82.53;43.47;;;;;;;15.98;45.80;100690.91;4987151;28;20205;-74
2021/04/01 10:49:19;;;;;;;80.37;43.17;;;;;;;15.96;45.29;100676.97;4986619;28;20252;-74
2021/04/01 10:51:49;;;;;;;80.83;44.53;;;;;;;15.95;46.04;100686.59;4987437;28;20217;-74
2021/04/01 10:54:15;;;;;;;82.23;42.47;;;;;;;15.93;44.54;100696.34;4987469;28;20633;-74
2021/04/01 10:56:52;;;;;;;74.30;42.00;;;;;;;16.06;44.95;100702.88;4987878;28;20217;-74
2021/04/01 10:59:31;;;;;;;81.57;44.13;;;;;;;16.16;45.20;100697.28;4989647;28;20906;-74
2021/04/01 11:01:59;;;;;;;77.00;44.23;;;;;;;16.20;45.53;100696.22;4985849;28;20676;-74
2021/04/01 11:04:30;;;;;;;82.70;44.30;;;;;;;16.17;45.74;100704.25;4988246;28;20832;-73
2021/04/01 11:07:02;;;;;;;85.57;44.43;;;;;;;16.08;45.34;100692.28;4986927;28;20464;-74
2021/04/01 11:09:30;;;;;;;87.00;46.93;;;;;;;16.24;45.80;100701.31;4985400;28;20807;-74
2021/04/01 11:12:13;;;;;;;84.33;44.97;;;;;;;16.45;46.08;100702.28;4986293;28;20218;-74
2021/04/01 11:14:40;;;;;;;86.03;44.50;;;;;;;16.44;44.71;100703.19;4985611;28;21340;-74
2021/04/01 11:17:08;;;;;;;89.20;45.97;;;;;;;16.44;44.97;100703.19;4986677;28;20224;-73
2021/04/01 11:19:36;;;;;;;86.80;46.30;;;;;;;16.43;45.67;100704.09;4988723;28;20206;-74
2021/04/01 11:22:03;;;;;;;86.63;46.57;;;;;;;16.70;45.25;100706.56;4989735;28;20210;-75
2021/04/01 11:24:30;;;;;;;88.63;48.43;;;;;;;16.96;44.52;100709.94;4992175;28;20225;-75
2021/04/01 11:27:08;;;;;;;85.47;47.43;;;;;;;16.73;45.23;100706.44;4990040;28;20221;-75
2021/04/01 11:29:34;;;;;;;81.70;47.23;;;;;;;16.67;44.49;100714.59;4990993;28;20229;-74
2021/04/01 11:32:20;;;;;;;74.87;44.43;;;;;;;16.73;45.29;100713.47;4992532;28;20206;-74
2021/04/01 11:34:47;;;;;;;83.13;44.60;;;;;;;16.74;43.90;100713.41;4991046;28;20434;-74
2021/04/01 11:37:34;;;;;;;79.27;44.73;;;;;;;16.82;44.64;100718.41;4992572;28;20214;-75
2021/04/01 11:40:04;;;;;;;75.17;42.17;;;;;;;17.43;43.87;100722.94;4991914;28;20214;-74
2021/04/01 11:42:31;;;;;;;72.93;42.67;;;;;;;17.68;43.91;100720.09;4992510;28;20214;-74
2021/04/01 11:44:59;;;;;;;71.30;42.80;;;;;;;17.86;43.58;100729.00;4990594;28;20757;-74
2021/04/01 11:47:26;;;;;;;76.60;44.43;;;;;;;18.58;42.20;100730.97;4990542;28;20225;-74
2021/04/01 11:49:53;;;;;;;75.30;44.43;;;;;;;18.97;42.03;100731.78;4990470;28;20227;-73
2021/04/01 11:52:20;;;;;;;72.83;43.90;;;;;;;19.67;41.78;100739.75;4990965;28;20220;-74
2021/04/01 11:54:48;;;;;;;61.60;40.93;;;;;;;20.31;40.17;100738.13;4991859;28;20227;-73
2021/04/01 11:57:18;;;;;;;64.07;41.63;;;;;;;20.61;38.79;100738.22;4989690;28;20242;-74
2021/04/01 12:00:01;;;;;;;66.20;41.63;;;;;;;19.99;40.54;100746.84;4991302;28;20198;-73
2021/04/01 12:02:28;;;;;;;54.33;38.53;;;;;;;20.88;39.16;100743.78;4990584;28;20368;-72